Terminal Aerodrome Forecast
Issued by NWS

Home | Current Version | Previous Version | Graphics & Text | Print | Product List | Glossary On
Versions: 1 2 3 4 5 6 7 8 9 10 11 12 13 14 15 16 17 18 19 20 21 22 23 24 25 26 27 28 29 30
000
FTUS43 KABR 160547 CCA
TAFMBG
TAF COR
KMBG 160547Z 1606/1706 VRB03KT P6SM BKN008 BKN015 BKN025
     FM160900 34007KT P6SM OVC015
     FM161100 34008KT P6SM OVC008
     FM161500 34012KT P6SM BKN015
     FM161700 35013KT P6SM BKN060=

USA.gov is the U.S. government's official web portal to all federal, state and local government web resources and services.